createdAt,value
2018-04-22T00:02:14.422Z,96152.02
2018-04-22T00:04:42.170Z,96162.45
2018-04-22T00:07:10.835Z,96163.66
2018-04-22T00:09:38.650Z,96163.09
2018-04-22T00:12:06.248Z,96158.01
2018-04-22T00:14:33.828Z,96158.96
2018-04-22T00:17:01.464Z,96156.97
2018-04-22T00:19:29.061Z,96165.13
2018-04-22T00:21:56.615Z,96168.13
2018-04-22T00:24:24.127Z,96170.21
2018-04-22T00:26:51.686Z,96167.56
2018-04-22T00:29:19.526Z,96171.44
2018-04-22T00:31:47.213Z,96176.84
2018-04-22T00:34:14.845Z,96173.34
2018-04-22T00:36:42.449Z,96172.13
2018-04-22T00:39:11.127Z,96172.41
2018-04-22T00:41:38.755Z,96172.29
2018-04-22T00:44:06.432Z,96169.16
2018-04-22T00:46:34.084Z,96168.67
2018-04-22T00:49:01.694Z,96166.03
2018-04-22T00:51:29.428Z,96163.58
2018-04-22T00:54:08.812Z,96160.11
2018-04-22T00:56:36.453Z,96159.16
2018-04-22T00:59:04.075Z,96155.34
2018-04-22T01:01:31.758Z,96160.80
2018-04-22T01:03:59.434Z,96156.32
2018-04-22T01:06:27.393Z,96164.69
2018-04-22T01:08:55.025Z,96162.69
2018-04-22T01:11:22.567Z,96164.91
2018-04-22T01:13:50.177Z,96165.80
2018-04-22T01:16:17.899Z,96165.11
2018-04-22T01:18:45.529Z,96170.13
2018-04-22T01:21:13.114Z,96168.10
2018-04-22T01:23:40.786Z,96176.81
2018-04-22T01:26:08.372Z,96173.48
2018-04-22T01:28:36.016Z,96166.63
2018-04-22T01:31:03.554Z,96165.48
2018-04-22T01:33:31.516Z,96163.17
2018-04-22T01:35:59.228Z,96161.87
2018-04-22T01:38:26.878Z,96164.47
2018-04-22T01:40:54.695Z,96160.21
2018-04-22T01:43:22.435Z,96159.85
2018-04-22T01:45:50.063Z,96158.11
2018-04-22T01:48:17.684Z,96163.22
2018-04-22T01:50:45.363Z,96165.34
2018-04-22T01:53:13.119Z,96155.41
2018-04-22T01:55:40.854Z,96159.23
2018-04-22T01:58:08.405Z,96150.61
2018-04-22T02:00:35.936Z,96153.56
2018-04-22T02:03:03.573Z,96165.13
2018-04-22T02:05:31.318Z,96148.50
2018-04-22T02:07:58.973Z,96159.87
2018-04-22T02:10:26.631Z,96159.37
2018-04-22T02:12:54.303Z,96155.20
2018-04-22T02:15:21.911Z,96146.73
2018-04-22T02:17:49.525Z,96148.33
2018-04-22T02:20:17.130Z,96155.83
2018-04-22T02:22:44.761Z,96159.37
2018-04-22T02:25:12.616Z,96153.86
2018-04-22T02:27:40.328Z,96151.95
2018-04-22T02:30:07.998Z,96145.84
2018-04-22T02:32:35.676Z,96145.94
2018-04-22T02:35:03.364Z,96144.42
2018-04-22T02:37:31.107Z,96152.75
2018-04-22T02:39:58.744Z,96141.59
2018-04-22T02:42:26.422Z,96145.31
2018-04-22T02:44:54.083Z,96147.79
2018-04-22T02:47:22.132Z,96146.13
2018-04-22T02:49:49.812Z,96153.36
2018-04-22T02:52:17.565Z,96146.48
2018-04-22T02:54:45.162Z,96142.16
2018-04-22T02:57:15.276Z,96141.13
2018-04-22T02:59:43.020Z,96140.61
2018-04-22T03:02:10.670Z,96145.72
2018-04-22T03:04:38.928Z,96143.45
2018-04-22T03:07:07.002Z,96146.56
2018-04-22T03:09:35.255Z,96140.96
2018-04-22T03:12:02.965Z,96138.85
2018-04-22T03:17:04.202Z,96146.70
2018-04-22T03:19:31.796Z,96141.47
2018-04-22T03:21:59.372Z,96142.83
2018-04-22T03:24:27.194Z,96142.00
2018-04-22T03:26:54.813Z,96145.23
2018-04-22T03:29:23.040Z,96143.95
2018-04-22T03:31:50.685Z,96145.59
2018-04-22T03:34:18.346Z,96139.55
2018-04-22T03:36:46.023Z,96141.97
2018-04-22T03:39:13.631Z,96144.45
2018-04-22T03:41:41.253Z,96142.37
2018-04-22T03:44:08.948Z,96141.75
2018-04-22T03:46:36.603Z,96143.30
2018-04-22T03:49:04.227Z,96145.56
2018-04-22T03:51:36.186Z,96146.48
2018-04-22T03:54:03.771Z,96150.67
2018-04-22T03:56:31.323Z,96148.12
2018-04-22T03:58:58.883Z,96150.64
2018-04-22T04:01:26.488Z,96147.74
2018-04-22T04:03:54.109Z,96148.42
2018-04-22T04:06:22.588Z,96147.23
2018-04-22T04:08:50.129Z,96145.36
2018-04-22T04:11:17.700Z,96152.34
2018-04-22T04:13:45.244Z,96150.69
2018-04-22T04:16:12.919Z,96152.45
2018-04-22T04:19:01.265Z,96161.45
2018-04-22T04:21:40.520Z,96157.42
2018-04-22T04:27:44.985Z,96158.45
2018-04-22T04:30:12.663Z,96159.39
2018-04-22T04:32:40.307Z,96153.48
2018-04-22T04:35:07.952Z,96157.77
2018-04-22T04:37:35.620Z,96158.11
2018-04-22T04:40:03.280Z,96158.15
2018-04-22T04:42:30.941Z,96161.58
2018-04-22T04:44:58.524Z,96166.89
2018-04-22T04:50:09.952Z,96167.97
2018-04-22T04:52:37.583Z,96171.63
2018-04-22T04:55:05.422Z,96172.34
2018-04-22T04:57:33.083Z,96167.35
2018-04-22T05:00:00.762Z,96169.48
2018-04-22T05:02:28.507Z,96168.63
2018-04-22T05:04:56.182Z,96175.91
2018-04-22T05:07:25.024Z,96175.28
2018-04-22T05:09:52.747Z,96169.00
2018-04-22T05:12:20.394Z,96174.39
2018-04-22T05:14:48.017Z,96174.97
2018-04-22T05:17:15.694Z,96167.68
2018-04-22T05:19:43.326Z,96171.16
2018-04-22T05:22:11.013Z,96172.16
2018-04-22T05:24:38.620Z,96170.77
2018-04-22T05:27:06.255Z,96172.52
2018-04-22T05:29:33.924Z,96174.58
2018-04-22T05:32:01.484Z,96178.20
2018-04-22T05:34:29.050Z,96178.68
2018-04-22T05:39:30.409Z,96174.80
2018-04-22T05:41:57.966Z,96182.44
2018-04-22T05:44:25.527Z,96172.88
2018-04-22T05:46:53.069Z,96178.60
2018-04-22T05:49:20.627Z,96175.59
2018-04-22T05:51:48.179Z,96179.58
2018-04-22T05:54:15.902Z,96181.36
2018-04-22T05:56:43.424Z,96178.65
2018-04-22T05:59:11.004Z,96174.97
2018-04-22T06:01:38.704Z,96175.98
2018-04-22T06:04:06.398Z,96181.50
2018-04-22T06:06:34.200Z,96178.38
2018-04-22T06:09:01.716Z,96171.47
2018-04-22T06:11:29.372Z,96173.05
2018-04-22T06:13:57.035Z,96172.69
2018-04-22T06:16:24.616Z,96170.97
2018-04-22T06:18:52.350Z,96166.87
2018-04-22T06:21:20.037Z,96170.70
2018-04-22T06:23:47.893Z,96172.24
2018-04-22T06:26:17.025Z,96169.83
2018-04-22T06:28:47.123Z,96164.33
2018-04-22T06:31:14.814Z,96157.14
2018-04-22T06:33:44.433Z,96154.14
2018-04-22T06:36:12.781Z,96154.06
2018-04-22T06:38:40.500Z,96159.55
2018-04-22T06:41:08.186Z,96160.26
2018-04-22T06:43:37.644Z,96160.68
2018-04-22T06:46:05.323Z,96164.52
2018-04-22T06:48:32.966Z,96164.79
2018-04-22T06:51:01.031Z,96164.91
2018-04-22T06:53:29.385Z,96167.36
2018-04-22T06:55:57.068Z,96164.56
2018-04-22T06:58:24.699Z,96165.40
2018-04-22T07:00:52.433Z,96167.22
2018-04-22T07:03:20.093Z,96166.90
2018-04-22T07:05:47.756Z,96161.27
2018-04-22T07:08:15.404Z,96160.03
2018-04-22T07:10:43.096Z,96161.30
2018-04-22T07:13:10.775Z,96162.31
2018-04-22T07:15:38.432Z,96158.56
2018-04-22T07:18:06.347Z,96157.23
2018-04-22T07:20:36.100Z,96156.21
2018-04-22T07:23:03.776Z,96151.66
2018-04-22T07:25:31.512Z,96147.50
2018-04-22T07:27:59.233Z,96154.77
2018-04-22T07:30:26.911Z,96149.16
2018-04-22T07:32:54.655Z,96147.11
2018-04-22T07:35:22.293Z,96142.38
2018-04-22T07:37:50.131Z,96144.45
2018-04-22T07:40:17.762Z,96144.80
2018-04-22T07:42:45.378Z,96148.16
2018-04-22T07:45:13.302Z,96138.91
2018-04-22T07:47:41.035Z,96143.37
2018-04-22T07:50:08.704Z,96151.12
2018-04-22T07:52:36.398Z,96152.42
2018-04-22T07:55:04.311Z,96145.63
2018-04-22T07:57:31.902Z,96147.62
2018-04-22T07:59:59.695Z,96150.70
2018-04-22T08:02:28.082Z,96149.68
2018-04-22T08:04:56.599Z,96151.90
2018-04-22T08:07:27.234Z,96146.89
2018-04-22T08:09:54.884Z,96143.64
2018-04-22T08:12:22.574Z,96144.30
2018-04-22T08:14:50.210Z,96134.81
2018-04-22T08:17:17.983Z,96143.90
2018-04-22T08:19:45.632Z,96132.30
2018-04-22T08:22:14.209Z,96135.69
2018-04-22T08:24:41.900Z,96140.46
2018-04-22T08:27:11.910Z,96135.89
2018-04-22T08:29:39.630Z,96129.98
2018-04-22T08:32:09.037Z,96132.11
2018-04-22T08:34:37.549Z,96130.02
2018-04-22T08:37:05.306Z,96130.75
2018-04-22T08:39:36.121Z,96129.95
2018-04-22T08:42:04.503Z,96130.16
2018-04-22T08:44:32.210Z,96116.53
2018-04-22T08:46:59.873Z,96124.09
2018-04-22T08:49:28.805Z,96113.70
2018-04-22T08:52:02.582Z,96121.86
2018-04-22T08:54:32.043Z,96118.89
2018-04-22T08:56:59.693Z,96122.91
2018-04-22T08:59:27.338Z,96118.30
2018-04-22T09:01:56.080Z,96109.23
2018-04-22T09:04:24.116Z,96113.53
2018-04-22T09:06:51.731Z,96114.05
2018-04-22T09:09:20.055Z,96109.26
2018-04-22T09:11:47.741Z,96113.17
2018-04-22T09:16:49.366Z,96107.38
2018-04-22T09:19:17.074Z,96106.19
2018-04-22T09:21:44.703Z,96103.47
2018-04-22T09:24:12.349Z,96097.79
2018-04-22T09:26:40.040Z,96101.98
2018-04-22T09:29:11.796Z,96090.37
2018-04-22T09:31:39.644Z,96096.75
2018-04-22T09:34:07.293Z,96084.03
2018-04-22T09:36:42.413Z,96088.44
2018-04-22T09:39:19.909Z,96090.41
2018-04-22T09:41:52.681Z,96082.97
2018-04-22T09:44:21.323Z,96078.78
2018-04-22T09:46:49.026Z,96075.43
2018-04-22T09:49:16.789Z,96081.08
2018-04-22T09:51:44.472Z,96074.08
2018-04-22T09:54:13.160Z,96075.28
2018-04-22T09:56:40.820Z,96068.47
2018-04-22T09:59:08.589Z,96075.39
2018-04-22T10:01:37.207Z,96066.22
2018-04-22T10:04:10.821Z,96063.55
2018-04-22T10:06:38.757Z,96063.69
2018-04-22T10:09:06.748Z,96065.05
2018-04-22T10:11:34.456Z,96051.44
2018-04-22T10:14:04.742Z,96053.89
2018-04-22T10:16:32.418Z,96055.47
2018-04-22T10:19:00.115Z,96050.81
2018-04-22T10:21:28.963Z,96041.92
2018-04-22T10:24:00.195Z,96048.25
2018-04-22T10:26:28.718Z,96028.33
2018-04-22T10:28:56.393Z,96037.52
2018-04-22T10:31:25.301Z,96038.08
2018-04-22T10:33:53.067Z,96035.77
2018-04-22T10:36:20.782Z,96031.41
2018-04-22T10:38:51.166Z,95925.44
2018-04-22T10:41:18.859Z,96033.16
2018-04-22T10:43:46.891Z,96023.29
2018-04-22T10:46:14.510Z,96027.31
2018-04-22T10:48:42.196Z,96019.08
2018-04-22T10:51:09.921Z,96011.54
2018-04-22T10:53:38.052Z,96008.72
2018-04-22T10:56:06.064Z,96011.68
2018-04-22T10:58:34.664Z,96002.09
2018-04-22T11:01:03.211Z,95997.12
2018-04-22T11:03:31.062Z,95988.71
2018-04-22T11:06:38.753Z,95995.47
2018-04-22T11:09:10.351Z,95989.95
2018-04-22T11:11:38.965Z,95995.64
2018-04-22T11:14:09.103Z,95981.67
2018-04-22T11:16:37.680Z,95991.44
2018-04-22T11:19:05.381Z,95997.64
2018-04-22T11:21:33.967Z,96002.89
2018-04-22T11:24:01.574Z,95996.69
2018-04-22T11:26:29.351Z,95994.84
2018-04-22T11:28:58.071Z,95980.23
2018-04-22T11:31:25.767Z,95987.19
2018-04-22T11:34:00.125Z,95984.00
2018-04-22T11:36:30.667Z,95984.68
2018-04-22T11:39:00.533Z,95988.98
2018-04-22T11:41:30.356Z,95988.27
2018-04-22T11:44:01.401Z,95993.95
2018-04-22T11:46:29.093Z,95982.03
2018-04-22T11:51:30.674Z,95979.50
2018-04-22T11:53:58.367Z,95988.84
2018-04-22T11:56:26.772Z,95979.49
2018-04-22T11:58:54.445Z,95983.58
2018-04-22T12:01:22.192Z,95975.52
2018-04-22T12:03:50.890Z,95980.23
2018-04-22T12:06:18.620Z,95979.88
2018-04-22T12:08:48.770Z,95970.52
2018-04-22T12:11:19.401Z,95970.80
2018-04-22T12:13:47.129Z,95969.30
2018-04-22T12:16:14.900Z,95962.14
2018-04-22T12:18:42.475Z,95954.70
2018-04-22T12:21:10.794Z,95947.42
2018-04-22T12:23:38.591Z,95955.14
2018-04-22T12:26:07.346Z,95959.47
2018-04-22T12:28:35.000Z,95955.34
2018-04-22T12:31:02.627Z,95963.45
2018-04-22T12:33:30.296Z,95959.13
2018-04-22T12:35:57.857Z,95964.91
2018-04-22T12:38:25.476Z,95963.82
2018-04-22T12:40:53.173Z,95959.56
2018-04-22T12:43:20.799Z,95953.92
2018-04-22T12:45:48.429Z,95952.47
2018-04-22T12:48:16.748Z,95950.50
2018-04-22T12:50:48.308Z,95948.75
2018-04-22T12:53:15.928Z,95952.60
2018-04-22T12:55:43.551Z,95956.66
2018-04-22T12:58:11.279Z,95950.58
2018-04-22T13:00:39.320Z,95951.55
2018-04-22T13:03:07.006Z,95942.39
2018-04-22T13:05:34.666Z,95941.58
2018-04-22T13:08:02.372Z,95936.89
2018-04-22T13:10:30.125Z,95934.72
2018-04-22T13:12:57.792Z,95930.80
2018-04-22T13:15:26.288Z,95922.81
2018-04-22T13:17:53.970Z,95922.99
2018-04-22T13:20:21.583Z,95914.05
2018-04-22T13:22:49.260Z,95910.44
2018-04-22T13:25:16.946Z,95910.50
2018-04-22T13:27:45.572Z,95912.66
2018-04-22T13:30:13.250Z,95911.49
2018-04-22T13:32:40.912Z,95909.26
2018-04-22T13:35:09.078Z,95912.16
2018-04-22T13:37:36.770Z,95910.83
2018-04-22T13:40:04.505Z,95905.46
2018-04-22T13:42:32.219Z,95910.46
2018-04-22T13:45:00.244Z,95910.17
2018-04-22T13:47:32.633Z,95917.34
2018-04-22T13:50:00.314Z,95916.64
2018-04-22T13:52:27.990Z,95914.20
2018-04-22T13:54:55.764Z,95915.08
2018-04-22T13:57:27.221Z,95897.56
2018-04-22T13:59:54.863Z,95900.77
2018-04-22T14:04:56.353Z,95899.47
2018-04-22T14:07:25.815Z,95893.20
2018-04-22T14:09:56.833Z,95896.81
2018-04-22T14:15:04.784Z,95888.01
2018-04-22T14:17:32.483Z,95889.34
2018-04-22T14:20:00.157Z,95892.52
2018-04-22T14:22:28.017Z,95888.66
2018-04-22T14:24:57.052Z,95885.00
2018-04-22T14:27:26.351Z,95885.27
2018-04-22T14:29:53.944Z,95881.81
2018-04-22T14:32:21.562Z,95879.41
2018-04-22T14:34:49.323Z,95875.45
2018-04-22T14:37:16.853Z,95886.39
2018-04-22T14:39:44.472Z,95883.70
2018-04-22T14:42:11.980Z,95878.25
2018-04-22T14:44:51.244Z,95879.22
2018-04-22T14:47:19.289Z,95876.77
2018-04-22T14:49:46.877Z,95873.39
2018-04-22T14:52:14.434Z,95876.30
2018-04-22T14:54:41.945Z,95874.53
2018-04-22T14:57:09.568Z,95869.27
2018-04-22T14:59:37.298Z,95877.75
2018-04-22T15:02:04.991Z,95870.84
2018-04-22T15:04:32.516Z,95868.52
2018-04-22T15:07:00.156Z,95865.75
2018-04-22T15:09:27.830Z,95861.66
2018-04-22T15:11:55.451Z,95851.53
2018-04-22T15:14:23.155Z,95850.59
2018-04-22T15:16:50.824Z,95858.55
2018-04-22T15:19:18.491Z,95857.59
2018-04-22T15:21:46.166Z,95858.88
2018-04-22T15:24:13.860Z,95849.20
2018-04-22T15:26:41.558Z,95847.27
2018-04-22T15:29:09.271Z,95852.42
2018-04-22T15:31:37.106Z,95850.31
2018-04-22T15:34:04.722Z,95851.94
2018-04-22T15:36:32.328Z,95850.28
2018-04-22T15:38:59.971Z,95856.39
2018-04-22T15:41:27.661Z,95855.82
2018-04-22T15:43:55.295Z,95855.95
2018-04-22T15:46:22.942Z,95859.94
2018-04-22T15:48:50.589Z,95860.92
2018-04-22T15:51:18.229Z,95855.48
2018-04-22T15:53:45.845Z,95857.17
2018-04-22T15:56:13.582Z,95851.17
2018-04-22T15:58:41.252Z,95851.02
2018-04-22T16:01:08.849Z,95844.91
2018-04-22T16:03:42.950Z,95848.55
2018-04-22T16:06:10.578Z,95844.19
2018-04-22T16:08:38.153Z,95848.23
2018-04-22T16:11:05.738Z,95843.45
2018-04-22T16:13:33.298Z,95838.98
2018-04-22T16:16:00.983Z,95842.69
2018-04-22T16:18:28.733Z,95848.20
2018-04-22T16:20:56.309Z,95842.78
2018-04-22T16:23:23.844Z,95849.33
2018-04-22T16:25:51.522Z,95843.34
2018-04-22T16:28:19.105Z,95849.27
2018-04-22T16:30:46.773Z,95846.05
2018-04-22T16:33:15.747Z,95851.73
2018-04-22T16:35:43.465Z,95846.02
2018-04-22T16:38:11.200Z,95843.45
2018-04-22T16:40:38.941Z,95831.89
2018-04-22T16:43:06.511Z,95836.84
2018-04-22T16:45:34.171Z,95836.71
2018-04-22T16:48:01.798Z,95840.52
2018-04-22T16:50:29.444Z,95824.80
2018-04-22T16:52:57.068Z,95837.73
2018-04-22T16:55:24.703Z,95839.05
2018-04-22T16:57:52.357Z,95839.73
2018-04-22T17:00:20.100Z,95837.69
2018-04-22T17:02:47.700Z,95841.67
2018-04-22T17:05:15.392Z,95837.48
2018-04-22T17:07:43.018Z,95838.36
2018-04-22T17:10:10.524Z,95840.97
2018-04-22T17:12:38.028Z,95835.53
2018-04-22T17:15:05.646Z,95838.61
2018-04-22T17:17:33.240Z,95837.39
2018-04-22T17:20:00.922Z,95843.20
2018-04-22T17:22:28.460Z,95849.37
2018-04-22T17:24:55.981Z,95854.87
2018-04-22T17:27:23.584Z,95848.48
2018-04-22T17:29:51.196Z,95855.57
2018-04-22T17:32:19.443Z,95858.47
2018-04-22T17:34:47.055Z,95860.81
2018-04-22T17:37:14.768Z,95862.94
2018-04-22T17:39:42.383Z,95868.70
2018-04-22T17:42:10.017Z,95876.79
2018-04-22T17:44:37.644Z,95874.17
2018-04-22T17:47:05.323Z,95875.55
2018-04-22T17:49:32.995Z,95873.87
2018-04-22T17:52:00.670Z,95878.67
2018-04-22T17:54:28.257Z,95881.03
2018-04-22T17:56:55.879Z,95886.16
2018-04-22T17:59:23.504Z,95890.45
2018-04-22T18:01:51.045Z,95896.45
2018-04-22T18:04:18.723Z,95894.78
2018-04-22T18:06:46.439Z,95905.05
2018-04-22T18:09:14.121Z,95905.23
2018-04-22T18:11:41.762Z,95903.44
2018-04-22T18:14:09.432Z,95908.36
2018-04-22T18:16:37.114Z,95911.70
2018-04-22T18:19:04.739Z,95914.82
2018-04-22T18:21:32.899Z,95919.22
2018-04-22T18:24:00.644Z,95913.88
2018-04-22T18:26:28.224Z,95921.61
2018-04-22T18:28:55.799Z,95925.76
2018-04-22T18:31:23.577Z,95930.05
2018-04-22T18:33:51.585Z,95930.03
2018-04-22T18:36:19.361Z,95933.65
2018-04-22T18:38:47.175Z,95932.45
2018-04-22T18:41:14.960Z,95931.96
2018-04-22T18:43:42.704Z,95937.04
2018-04-22T18:46:10.427Z,95940.28
2018-04-22T18:48:38.111Z,95943.44
2018-04-22T18:51:06.630Z,95943.68
2018-04-22T18:53:34.294Z,95944.52
2018-04-22T18:56:01.980Z,95952.42
2018-04-22T18:58:29.743Z,95951.48
2018-04-22T19:00:57.396Z,95952.25
2018-04-22T19:03:25.221Z,95960.31
2018-04-22T19:05:53.794Z,95958.50
2018-04-22T19:08:21.513Z,95963.98
2018-04-22T19:10:49.214Z,95955.06
2018-04-22T19:13:16.814Z,95958.69
2018-04-22T19:15:44.380Z,95967.16
2018-04-22T19:18:11.992Z,95964.75
2018-04-22T19:20:40.690Z,95964.24
2018-04-22T19:23:08.612Z,95966.03
2018-04-22T19:25:36.189Z,95970.79
2018-04-22T19:28:03.791Z,95967.04
2018-04-22T19:30:31.293Z,95971.95
2018-04-22T19:32:58.826Z,95965.34
2018-04-22T19:35:26.730Z,95967.31
2018-04-22T19:37:54.397Z,95963.95
2018-04-22T19:40:22.074Z,95967.79
2018-04-22T19:42:49.705Z,95966.27
2018-04-22T19:45:17.314Z,95963.84
2018-04-22T19:47:44.976Z,95964.93
2018-04-22T19:50:12.615Z,95970.80
2018-04-22T19:52:40.349Z,95969.27
2018-04-22T19:55:07.949Z,95965.55
2018-04-22T19:57:35.568Z,95974.03
2018-04-22T20:00:03.231Z,95972.91
2018-04-22T20:02:38.427Z,95964.86
2018-04-22T20:05:06.135Z,95965.16
2018-04-22T20:07:36.517Z,95966.64
2018-04-22T20:10:04.231Z,95965.39
2018-04-22T20:12:32.914Z,95966.13
2018-04-22T20:15:01.684Z,95961.42
2018-04-22T20:17:29.337Z,95965.98
2018-04-22T20:19:57.079Z,95969.34
2018-04-22T20:22:24.774Z,95973.23
2018-04-22T20:24:52.473Z,95972.14
2018-04-22T20:27:23.789Z,95974.53
2018-04-22T20:29:52.103Z,95971.03
2018-04-22T20:32:19.792Z,95988.42
2018-04-22T20:34:47.618Z,95977.03
2018-04-22T20:37:15.366Z,95973.98
2018-04-22T20:39:43.001Z,95975.00
2018-04-22T20:42:10.852Z,95975.42
2018-04-22T20:44:38.476Z,95976.53
2018-04-22T20:47:06.221Z,95976.13
2018-04-22T20:49:33.866Z,95975.67
2018-04-22T20:52:01.640Z,95976.93
2018-04-22T20:54:30.312Z,95975.78
2018-04-22T20:56:58.000Z,95977.36
2018-04-22T20:59:25.644Z,95978.31
2018-04-22T21:01:53.556Z,95980.56
2018-04-22T21:04:21.186Z,95985.98
2018-04-22T21:06:48.888Z,95980.32
2018-04-22T21:09:16.609Z,95978.55
2018-04-22T21:11:44.837Z,95976.07
2018-04-22T21:14:12.609Z,95978.05
2018-04-22T21:16:40.249Z,95975.97
2018-04-22T21:19:08.979Z,95972.25
2018-04-22T21:21:36.648Z,95976.17
2018-04-22T21:24:04.345Z,95975.45
2018-04-22T21:26:31.939Z,95976.52
2018-04-22T21:28:59.619Z,95973.04
2018-04-22T21:31:27.208Z,95973.45
2018-04-22T21:34:01.313Z,95971.83
2018-04-22T21:36:29.163Z,95971.86
2018-04-22T21:38:56.884Z,95968.33
2018-04-22T21:43:58.372Z,95969.72
2018-04-22T21:46:27.157Z,95971.52
2018-04-22T21:48:55.051Z,95970.20
2018-04-22T21:51:23.345Z,95971.52
2018-04-22T21:53:50.989Z,95974.16
2018-04-22T21:56:18.758Z,95978.60
2018-04-22T21:58:46.407Z,95979.17
2018-04-22T22:01:14.037Z,95973.33
2018-04-22T22:03:42.590Z,95981.17
2018-04-22T22:06:10.446Z,95974.80
2018-04-22T22:08:38.309Z,95982.14
2018-04-22T22:11:06.039Z,95976.25
2018-04-22T22:13:33.880Z,95983.18
2018-04-22T22:16:01.600Z,95977.72
2018-04-22T22:21:04.331Z,95980.61
2018-04-22T22:23:32.863Z,95986.92
2018-04-22T22:26:00.559Z,95982.38
2018-04-22T22:28:28.164Z,95991.02
2018-04-22T22:30:55.733Z,95992.73
2018-04-22T22:33:23.449Z,95991.68
2018-04-22T22:35:51.044Z,95991.34
2018-04-22T22:38:18.681Z,95997.80
2018-04-22T22:40:46.261Z,96002.98
2018-04-22T22:43:14.041Z,95995.70
2018-04-22T22:48:32.372Z,96002.41
2018-04-22T22:50:59.910Z,96002.81
2018-04-22T22:53:27.490Z,96001.94
2018-04-22T22:55:55.359Z,95998.44
2018-04-22T22:58:22.956Z,96001.52
2018-04-22T23:00:50.595Z,96008.02
2018-04-22T23:03:18.254Z,96008.00
2018-04-22T23:05:46.011Z,95999.06
2018-04-22T23:08:13.649Z,96001.12
2018-04-22T23:10:41.276Z,96001.56
2018-04-22T23:13:08.880Z,95995.64
2018-04-22T23:15:36.464Z,95993.34
2018-04-22T23:18:04.092Z,95993.31
2018-04-22T23:20:31.789Z,95992.23
2018-04-22T23:22:59.400Z,95990.76
2018-04-22T23:25:27.176Z,95991.38
2018-04-22T23:27:54.844Z,95984.67
2018-04-22T23:30:22.467Z,95985.43
2018-04-22T23:32:50.100Z,95990.13
2018-04-22T23:35:17.753Z,95983.48
2018-04-22T23:37:45.401Z,95987.64
2018-04-22T23:40:13.154Z,95991.55
2018-04-22T23:42:40.831Z,95991.55
2018-04-22T23:45:08.457Z,95982.50
2018-04-22T23:47:36.206Z,95979.50
2018-04-22T23:50:03.802Z,95982.41
2018-04-22T23:52:31.394Z,95979.88
2018-04-22T23:54:59.070Z,95975.03
2018-04-22T23:57:26.704Z,95973.61
2018-04-22T23:59:54.309Z,95967.15
